createdAt,value
2023-01-09T00:01:25.968Z,95752.91
2023-01-09T00:03:52.606Z,95692.22
2023-01-09T00:06:19.236Z,95811.78
2023-01-09T00:08:45.989Z,95686.25
2023-01-09T00:11:12.604Z,95769.03
2023-01-09T00:13:39.341Z,95911.81
2023-01-09T00:16:07.014Z,95765.66
2023-01-09T00:18:33.955Z,95828.13
2023-01-09T00:21:01.769Z,95902.44
2023-01-09T00:23:28.375Z,95757.97
2023-01-09T00:26:04.949Z,95681.91
2023-01-09T00:28:31.831Z,95785.19
2023-01-09T00:30:59.263Z,95685.34
2023-01-09T00:33:29.004Z,95705.81
2023-01-09T00:35:55.574Z,95550.50
2023-01-09T00:38:22.253Z,95743.44
2023-01-09T00:40:48.835Z,95615.22
2023-01-09T00:43:15.385Z,95681.88
2023-01-09T00:45:41.939Z,95829.66
2023-01-09T00:48:11.171Z,95749.31
2023-01-09T00:50:37.772Z,95866.41
2023-01-09T00:53:08.309Z,95820.31
2023-01-09T00:55:35.645Z,95686.09
2023-01-09T00:58:03.089Z,95866.47
2023-01-09T01:00:29.745Z,95693.00
2023-01-09T01:02:56.334Z,95809.19
2023-01-09T01:05:41.604Z,95809.25
2023-01-09T01:08:31.373Z,95665.75
2023-01-09T01:10:58.011Z,95658.91
2023-01-09T01:13:24.538Z,95799.06
2023-01-09T01:15:51.167Z,95871.75
2023-01-09T01:18:17.814Z,95786.28
2023-01-09T01:20:44.685Z,95646.19
2023-01-09T01:23:11.316Z,95876.00
2023-01-09T01:25:39.008Z,95689.56
2023-01-09T01:28:06.231Z,95854.47
2023-01-09T01:30:33.359Z,95753.66
2023-01-09T01:33:00.099Z,95675.88
2023-01-09T01:35:26.853Z,95728.75
2023-01-09T01:37:53.486Z,95875.75
2023-01-09T01:40:20.096Z,95831.31
2023-01-09T01:42:50.605Z,95713.38
2023-01-09T01:45:25.115Z,95715.88
2023-01-09T01:48:00.920Z,95719.25
2023-01-09T01:50:43.271Z,95921.03
2023-01-09T01:53:13.551Z,95683.56
2023-01-09T01:56:05.134Z,95910.84
2023-01-09T01:58:32.107Z,95774.03
2023-01-09T02:00:58.708Z,95723.81
2023-01-09T02:03:28.938Z,95670.06
2023-01-09T02:05:55.494Z,95799.09
2023-01-09T02:08:22.271Z,95804.22
2023-01-09T02:10:49.105Z,95798.25
2023-01-09T02:13:15.689Z,95803.41
2023-01-09T02:15:42.084Z,95864.97
2023-01-09T02:18:35.247Z,95790.59
2023-01-09T02:21:22.603Z,95693.19
2023-01-09T02:24:14.681Z,95858.19
2023-01-09T02:27:25.806Z,95718.13
2023-01-09T02:30:12.658Z,95678.88
2023-01-09T02:32:51.758Z,95843.78
2023-01-09T02:35:34.008Z,95836.97
2023-01-09T02:38:03.661Z,95838.69
2023-01-09T02:40:53.649Z,95698.63
2023-01-09T02:43:20.252Z,95650.81
2023-01-09T02:45:46.879Z,95646.53
2023-01-09T02:48:13.488Z,95759.28
2023-01-09T02:50:42.099Z,95864.22
2023-01-09T02:53:18.614Z,95671.22
2023-01-09T02:55:53.301Z,95680.63
2023-01-09T02:58:39.052Z,95653.38
2023-01-09T03:01:18.828Z,95853.19
2023-01-09T03:04:04.216Z,95843.84
2023-01-09T03:06:39.666Z,95855.72
2023-01-09T03:09:13.916Z,95764.41
2023-01-09T03:11:42.739Z,95793.28
2023-01-09T03:14:12.286Z,95669.72
2023-01-09T03:16:38.881Z,95702.19
2023-01-09T03:19:07.550Z,95754.97
2023-01-09T03:21:34.106Z,95683.31
2023-01-09T03:24:01.494Z,95562.84
2023-01-09T03:26:29.515Z,95829.34
2023-01-09T03:28:56.210Z,95820.00
2023-01-09T03:31:22.878Z,95751.66
2023-01-09T03:33:49.513Z,95793.50
2023-01-09T03:36:17.190Z,95757.50
2023-01-09T03:38:43.797Z,95679.66
2023-01-09T03:41:10.367Z,95807.91
2023-01-09T03:43:36.988Z,95700.25
2023-01-09T03:46:03.674Z,95595.28
2023-01-09T03:48:30.289Z,95761.75
2023-01-09T03:50:56.874Z,95597.69
2023-01-09T03:53:25.672Z,95497.97
2023-01-09T03:55:54.149Z,95643.06
2023-01-09T03:58:20.953Z,95602.09
2023-01-09T04:00:49.079Z,95648.94
2023-01-09T04:03:15.951Z,95690.84
2023-01-09T04:05:43.658Z,95665.09
2023-01-09T04:08:10.215Z,95620.72
2023-01-09T04:10:36.799Z,95654.94
2023-01-09T04:13:03.353Z,95752.97
2023-01-09T04:15:30.002Z,95774.47
2023-01-09T04:17:56.571Z,95692.38
2023-01-09T04:20:23.131Z,95717.19
2023-01-09T04:22:49.751Z,95649.66
2023-01-09T04:25:16.305Z,95572.84
2023-01-09T04:27:42.899Z,95801.66
2023-01-09T04:30:10.112Z,95811.03
2023-01-09T04:32:36.729Z,95720.34
2023-01-09T04:35:03.432Z,95778.44
2023-01-09T04:37:30.095Z,95702.41
2023-01-09T04:39:57.269Z,95812.69
2023-01-09T04:42:23.997Z,95824.63
2023-01-09T04:44:53.844Z,95786.03
2023-01-09T04:47:21.179Z,95686.16
2023-01-09T04:49:47.831Z,95735.56
2023-01-09T04:52:14.395Z,95694.63
2023-01-09T04:54:40.961Z,95665.56
2023-01-09T04:57:07.616Z,95654.56
2023-01-09T04:59:34.280Z,95839.88
2023-01-09T05:02:01.038Z,95648.47
2023-01-09T05:04:27.829Z,95777.50
2023-01-09T05:06:54.528Z,95712.53
2023-01-09T05:09:22.186Z,95813.41
2023-01-09T05:11:49.292Z,95804.00
2023-01-09T05:14:15.878Z,95601.34
2023-01-09T05:16:44.705Z,95870.63
2023-01-09T05:19:11.314Z,95825.34
2023-01-09T05:21:38.434Z,95864.53
2023-01-09T05:24:05.310Z,95873.91
2023-01-09T05:26:31.891Z,95971.25
2023-01-09T05:28:58.564Z,95801.19
2023-01-09T05:31:26.064Z,95857.66
2023-01-09T05:33:53.083Z,95883.25
2023-01-09T05:36:19.599Z,95754.19
2023-01-09T05:38:46.155Z,95839.63
2023-01-09T05:41:12.669Z,95892.66
2023-01-09T05:43:39.276Z,95900.28
2023-01-09T05:46:06.062Z,95908.81
2023-01-09T05:48:32.762Z,95750.66
2023-01-09T05:50:59.430Z,95944.75
2023-01-09T05:53:25.982Z,95817.13
2023-01-09T05:55:52.518Z,95786.44
2023-01-09T05:58:19.164Z,95961.81
2023-01-09T06:00:45.769Z,95925.00
2023-01-09T06:03:12.402Z,95775.31
2023-01-09T06:05:39.015Z,95926.72
2023-01-09T06:08:05.653Z,95861.00
2023-01-09T06:10:32.295Z,95848.22
2023-01-09T06:12:58.925Z,95928.59
2023-01-09T06:15:26.615Z,95895.13
2023-01-09T06:17:53.302Z,95988.34
2023-01-09T06:20:19.918Z,95973.00
2023-01-09T06:22:46.478Z,95993.44
2023-01-09T06:25:13.362Z,95920.69
2023-01-09T06:27:39.918Z,95997.50
2023-01-09T06:30:07.449Z,96010.41
2023-01-09T06:32:33.987Z,96017.22
2023-01-09T06:35:00.651Z,95984.63
2023-01-09T06:37:27.371Z,95928.19
2023-01-09T06:39:54.830Z,95903.25
2023-01-09T06:42:22.260Z,95926.47
2023-01-09T06:44:48.865Z,95883.53
2023-01-09T06:47:15.551Z,95947.75
2023-01-09T06:49:42.068Z,95839.81
2023-01-09T06:52:08.753Z,95971.53
2023-01-09T06:54:35.641Z,96039.97
2023-01-09T06:57:02.209Z,95968.03
2023-01-09T06:59:28.869Z,96015.03
2023-01-09T07:01:55.842Z,95931.75
2023-01-09T07:04:23.012Z,96001.16
2023-01-09T07:06:49.570Z,96022.41
2023-01-09T07:09:16.131Z,96009.56
2023-01-09T07:11:42.692Z,96006.16
2023-01-09T07:14:09.285Z,96010.44
2023-01-09T07:16:35.799Z,96057.53
2023-01-09T07:19:02.400Z,95970.13
2023-01-09T07:21:29.437Z,96107.06
2023-01-09T07:23:56.950Z,96069.41
2023-01-09T07:26:23.562Z,96004.28
2023-01-09T07:28:50.166Z,95910.09
2023-01-09T07:31:16.721Z,96025.66
2023-01-09T07:33:43.295Z,96067.50
2023-01-09T07:36:10.051Z,95997.13
2023-01-09T07:38:37.566Z,96054.06
2023-01-09T07:41:04.309Z,96073.22
2023-01-09T07:43:30.921Z,96050.84
2023-01-09T07:45:57.544Z,96111.66
2023-01-09T07:48:24.162Z,96108.28
2023-01-09T07:50:50.675Z,96157.97
2023-01-09T07:53:17.229Z,96007.06
2023-01-09T07:55:43.792Z,96176.66
2023-01-09T07:58:10.539Z,96033.50
2023-01-09T08:00:37.121Z,96151.59
2023-01-09T08:03:03.740Z,96155.97
2023-01-09T08:05:30.276Z,96198.00
2023-01-09T08:07:56.893Z,96156.72
2023-01-09T08:10:23.556Z,96155.16
2023-01-09T08:12:50.411Z,96018.88
2023-01-09T08:15:17.161Z,96186.78
2023-01-09T08:17:44.292Z,96153.41
2023-01-09T08:20:12.125Z,96156.81
2023-01-09T08:22:41.108Z,96131.97
2023-01-09T08:25:09.518Z,96173.94
2023-01-09T08:27:37.846Z,96210.78
2023-01-09T08:30:04.783Z,96173.00
2023-01-09T08:32:31.367Z,96049.59
2023-01-09T08:34:58.028Z,96195.31
2023-01-09T08:37:24.619Z,96225.38
2023-01-09T08:39:51.175Z,96191.84
2023-01-09T08:42:36.352Z,96214.16
2023-01-09T08:45:21.760Z,96043.47
2023-01-09T08:47:48.417Z,96181.53
2023-01-09T08:50:15.131Z,96244.94
2023-01-09T08:52:41.863Z,96181.50
2023-01-09T08:55:08.790Z,96148.88
2023-01-09T08:57:35.370Z,96214.00
2023-01-09T09:00:02.151Z,96236.28
2023-01-09T09:02:28.731Z,96158.13
2023-01-09T09:04:56.329Z,96130.72
2023-01-09T09:07:26.641Z,96230.31
2023-01-09T09:09:54.192Z,96033.91
2023-01-09T09:12:20.783Z,96172.81
2023-01-09T09:15:06.059Z,96207.06
2023-01-09T09:17:33.521Z,96265.38
2023-01-09T09:20:00.363Z,96219.97
2023-01-09T09:22:27.039Z,96231.88
2023-01-09T09:24:53.646Z,96109.16
2023-01-09T09:27:20.240Z,96017.41
2023-01-09T09:29:46.828Z,96266.09
2023-01-09T09:32:13.366Z,96194.06
2023-01-09T09:34:39.937Z,96196.63
2023-01-09T09:37:06.556Z,96222.44
2023-01-09T09:39:33.125Z,96048.38
2023-01-09T09:42:37.228Z,96267.81
2023-01-09T09:45:24.492Z,96168.25
2023-01-09T09:48:29.639Z,96080.75
2023-01-09T09:50:56.101Z,96272.84
2023-01-09T09:53:54.678Z,96208.47
2023-01-09T09:56:22.491Z,96201.56
2023-01-09T09:58:58.602Z,96045.53
2023-01-09T10:01:29.740Z,96139.94
2023-01-09T10:03:58.367Z,96176.75
2023-01-09T10:06:33.358Z,96198.06
2023-01-09T10:09:34.273Z,96222.25
2023-01-09T10:12:32.054Z,96277.06
2023-01-09T10:15:38.561Z,96185.25
2023-01-09T10:18:17.552Z,96278.75
2023-01-09T10:20:57.275Z,96174.97
2023-01-09T10:23:39.169Z,96280.44
2023-01-09T10:26:16.821Z,96187.91
2023-01-09T10:29:21.444Z,96268.59
2023-01-09T10:31:48.026Z,96274.56
2023-01-09T10:34:44.742Z,96077.34
2023-01-09T10:37:30.135Z,96083.38
2023-01-09T10:40:14.023Z,96245.41
2023-01-09T10:43:00.734Z,96271.16
2023-01-09T10:45:34.168Z,96271.06
2023-01-09T10:48:06.234Z,96202.31
2023-01-09T10:50:37.545Z,96199.03
2023-01-09T10:53:36.421Z,96189.56
2023-01-09T10:56:13.673Z,96240.06
2023-01-09T10:58:40.352Z,96007.97
2023-01-09T11:01:07.808Z,96217.94
2023-01-09T11:03:34.371Z,96127.06
2023-01-09T11:06:01.089Z,96150.13
2023-01-09T11:08:43.257Z,96279.66
2023-01-09T11:11:10.392Z,96190.38
2023-01-09T11:13:38.326Z,96131.13
2023-01-09T11:16:11.031Z,96281.38
2023-01-09T11:18:38.995Z,96193.03
2023-01-09T11:21:36.212Z,96283.97
2023-01-09T11:24:14.863Z,96285.66
2023-01-09T11:26:41.456Z,96258.03
2023-01-09T11:29:11.557Z,96274.56
2023-01-09T11:31:38.825Z,96271.97
2023-01-09T11:34:05.416Z,96096.16
2023-01-09T11:36:31.943Z,96056.84
2023-01-09T11:38:59.258Z,96112.22
2023-01-09T11:41:30.426Z,96056.78
2023-01-09T11:43:58.325Z,96132.72
2023-01-09T11:46:30.940Z,96284.06
2023-01-09T11:48:58.122Z,96095.31
2023-01-09T11:51:26.430Z,96212.00
2023-01-09T11:53:58.813Z,96281.56
2023-01-09T11:56:25.380Z,96218.72
2023-01-09T11:58:52.030Z,96068.84
2023-01-09T12:01:33.836Z,96272.25
2023-01-09T12:04:20.807Z,96273.06
2023-01-09T12:07:09.111Z,96197.53
2023-01-09T12:10:00.042Z,96277.31
2023-01-09T12:12:54.735Z,96282.44
2023-01-09T12:15:32.233Z,96133.75
2023-01-09T12:18:23.707Z,96307.91
2023-01-09T12:21:14.095Z,96290.06
2023-01-09T12:24:18.659Z,96296.84
2023-01-09T12:26:55.907Z,96249.66
2023-01-09T12:29:59.844Z,96290.00
2023-01-09T12:32:56.382Z,96174.25
2023-01-09T12:35:33.066Z,96032.63
2023-01-09T12:38:24.058Z,96278.03
2023-01-09T12:40:53.605Z,96292.47
2023-01-09T12:43:49.227Z,96287.38
2023-01-09T12:46:20.039Z,96045.59
2023-01-09T12:48:58.949Z,96279.69
2023-01-09T12:51:37.094Z,96136.31
2023-01-09T12:54:04.792Z,96293.28
2023-01-09T12:56:40.354Z,96064.28
2023-01-09T12:59:15.819Z,96061.66
2023-01-09T13:01:46.629Z,96243.63
2023-01-09T13:04:17.578Z,96225.66
2023-01-09T13:06:47.032Z,96090.00
2023-01-09T13:09:35.402Z,96051.53
2023-01-09T13:12:13.821Z,96210.13
2023-01-09T13:14:47.451Z,96211.00
2023-01-09T13:17:40.979Z,96233.31
2023-01-09T13:20:17.902Z,96231.53
2023-01-09T13:22:49.971Z,96067.78
2023-01-09T13:25:31.786Z,96285.63
2023-01-09T13:28:00.867Z,96118.16
2023-01-09T13:30:33.937Z,96291.56
2023-01-09T13:33:06.303Z,96294.13
2023-01-09T13:35:32.923Z,96223.78
2023-01-09T13:37:59.571Z,96185.25
2023-01-09T13:40:27.324Z,96096.91
2023-01-09T13:43:06.588Z,96197.13
2023-01-09T13:45:34.525Z,96152.72
2023-01-09T13:48:17.640Z,96278.78
2023-01-09T13:50:45.187Z,96204.16
2023-01-09T13:53:17.621Z,96277.91
2023-01-09T13:55:59.784Z,96276.22
2023-01-09T13:58:39.673Z,96255.50
2023-01-09T14:01:24.655Z,96293.19
2023-01-09T14:04:24.040Z,96288.09
2023-01-09T14:07:22.679Z,96289.81
2023-01-09T14:10:00.829Z,96206.63
2023-01-09T14:12:28.764Z,96118.91
2023-01-09T14:14:57.458Z,96153.41
2023-01-09T14:17:36.707Z,96287.25
2023-01-09T14:20:06.469Z,96243.50
2023-01-09T14:22:45.612Z,96229.75
2023-01-09T14:25:24.832Z,96161.13
2023-01-09T14:27:54.438Z,96284.72
2023-01-09T14:30:27.159Z,96288.97
2023-01-09T14:33:30.110Z,96285.56
2023-01-09T14:36:13.120Z,96205.75
2023-01-09T14:38:45.639Z,96288.13
2023-01-09T14:41:45.401Z,96293.22
2023-01-09T14:44:25.051Z,96214.34
2023-01-09T14:46:52.641Z,96214.31
2023-01-09T14:49:30.456Z,96307.69
2023-01-09T14:51:57.008Z,96312.63
2023-01-09T14:54:34.652Z,96158.13
2023-01-09T14:57:02.717Z,96224.97
2023-01-09T14:59:29.690Z,96217.22
2023-01-09T15:01:57.828Z,96254.16
2023-01-09T15:04:36.066Z,96308.03
2023-01-09T15:07:03.334Z,96317.53
2023-01-09T15:09:43.217Z,96214.41
2023-01-09T15:12:09.895Z,96095.41
2023-01-09T15:14:39.912Z,96263.28
2023-01-09T15:17:07.284Z,96272.00
2023-01-09T15:19:33.857Z,96198.13
2023-01-09T15:22:20.584Z,96322.75
2023-01-09T15:24:47.216Z,96247.06
2023-01-09T15:27:15.476Z,96345.75
2023-01-09T15:29:42.091Z,96312.22
2023-01-09T15:32:29.017Z,96354.34
2023-01-09T15:34:55.844Z,96295.94
2023-01-09T15:37:38.704Z,96272.75
2023-01-09T15:40:07.446Z,96366.13
2023-01-09T15:42:56.326Z,96304.22
2023-01-09T15:45:29.207Z,96290.50
2023-01-09T15:47:55.816Z,96293.88
2023-01-09T15:50:26.957Z,96322.22
2023-01-09T15:52:53.567Z,96254.44
2023-01-09T15:55:35.196Z,96382.34
2023-01-09T15:58:02.574Z,96394.97
2023-01-09T16:00:42.012Z,96354.66
2023-01-09T16:03:20.483Z,96370.13
2023-01-09T16:05:48.747Z,96360.75
2023-01-09T16:08:25.551Z,96395.88
2023-01-09T16:10:54.061Z,96382.06
2023-01-09T16:13:21.940Z,96325.38
2023-01-09T16:15:48.588Z,96342.56
2023-01-09T16:18:18.091Z,96398.38
2023-01-09T16:20:44.771Z,96376.00
2023-01-09T16:23:21.069Z,96412.78
2023-01-09T16:25:47.765Z,96311.22
2023-01-09T16:28:23.205Z,96351.69
2023-01-09T16:31:00.437Z,96423.81
2023-01-09T16:33:28.410Z,96404.84
2023-01-09T16:35:55.045Z,96362.44
2023-01-09T16:38:22.670Z,96398.75
2023-01-09T16:41:18.934Z,96343.97
2023-01-09T16:43:46.026Z,96364.44
2023-01-09T16:46:13.479Z,96318.94
2023-01-09T16:48:40.516Z,96308.34
2023-01-09T16:51:07.209Z,96342.94
2023-01-09T16:53:33.810Z,96388.38
2023-01-09T16:56:00.403Z,96373.72
2023-01-09T16:58:29.116Z,96445.94
2023-01-09T17:00:56.141Z,96390.81
2023-01-09T17:03:22.795Z,96337.56
2023-01-09T17:05:50.411Z,96384.78
2023-01-09T17:08:21.894Z,96284.00
2023-01-09T17:10:49.591Z,96354.31
2023-01-09T17:13:16.124Z,96387.00
2023-01-09T17:15:42.711Z,96358.53
2023-01-09T17:18:16.329Z,96491.75
2023-01-09T17:20:43.866Z,96393.59
2023-01-09T17:23:10.582Z,96446.91
2023-01-09T17:25:55.651Z,96421.81
2023-01-09T17:28:34.266Z,96408.97
2023-01-09T17:31:01.981Z,96490.63
2023-01-09T17:33:28.522Z,96466.63
2023-01-09T17:35:55.469Z,96493.19
2023-01-09T17:38:22.047Z,96514.66
2023-01-09T17:40:49.489Z,96432.09
2023-01-09T17:43:16.856Z,96371.94
2023-01-09T17:45:43.504Z,96457.91
2023-01-09T17:48:17.636Z,96440.03
2023-01-09T17:50:44.868Z,96455.38
2023-01-09T17:53:11.613Z,96422.72
2023-01-09T17:55:38.320Z,96279.09
2023-01-09T17:58:04.896Z,96525.81
2023-01-09T18:00:42.313Z,96370.75
2023-01-09T18:03:08.905Z,96420.72
2023-01-09T18:05:37.070Z,96506.38
2023-01-09T18:08:03.818Z,96484.19
2023-01-09T18:10:30.387Z,96503.97
2023-01-09T18:12:56.988Z,96515.09
2023-01-09T18:15:24.453Z,96465.22
2023-01-09T18:17:51.769Z,96457.31
2023-01-09T18:20:18.615Z,96428.09
2023-01-09T18:22:45.245Z,96320.50
2023-01-09T18:25:11.778Z,96364.25
2023-01-09T18:27:38.358Z,96446.72
2023-01-09T18:30:06.145Z,96560.25
2023-01-09T18:32:33.069Z,96468.09
2023-01-09T18:34:59.628Z,96448.34
2023-01-09T18:37:26.208Z,96492.19
2023-01-09T18:39:52.744Z,96536.09
2023-01-09T18:42:19.323Z,96528.28
2023-01-09T18:44:45.873Z,96547.19
2023-01-09T18:47:12.660Z,96560.84
2023-01-09T18:49:39.207Z,96525.47
2023-01-09T18:52:07.540Z,96556.34
2023-01-09T18:54:34.259Z,96561.63
2023-01-09T18:57:00.804Z,96522.81
2023-01-09T18:59:27.360Z,96591.75
2023-01-09T19:01:53.945Z,96508.13
2023-01-09T19:04:20.674Z,96620.88
2023-01-09T19:06:47.312Z,96541.31
2023-01-09T19:09:13.904Z,96538.09
2023-01-09T19:11:44.317Z,96551.88
2023-01-09T19:14:11.424Z,96598.41
2023-01-09T19:16:38.021Z,96553.66
2023-01-09T19:19:06.516Z,96654.16
2023-01-09T19:21:33.397Z,96527.44
2023-01-09T19:24:00.091Z,96647.16
2023-01-09T19:26:27.311Z,96600.59
2023-01-09T19:29:00.786Z,96650.81
2023-01-09T19:31:28.443Z,96457.50
2023-01-09T19:33:55.309Z,96604.00
2023-01-09T19:36:22.011Z,96656.34
2023-01-09T19:38:48.611Z,96636.56
2023-01-09T19:41:19.304Z,96577.19
2023-01-09T19:43:46.383Z,96655.66
2023-01-09T19:46:14.470Z,96516.00
2023-01-09T19:48:42.777Z,96633.16
2023-01-09T19:51:09.878Z,96559.88
2023-01-09T19:53:36.690Z,96629.63
2023-01-09T19:56:19.997Z,96525.38
2023-01-09T19:58:51.340Z,96638.19
2023-01-09T20:01:19.846Z,96599.56
2023-01-09T20:03:47.623Z,96640.78
2023-01-09T20:06:19.372Z,96607.28
2023-01-09T20:08:49.113Z,96665.84
2023-01-09T20:11:16.090Z,96646.84
2023-01-09T20:13:42.891Z,96655.38
2023-01-09T20:16:14.165Z,96487.25
2023-01-09T20:18:40.891Z,96666.38
2023-01-09T20:21:07.531Z,96639.63
2023-01-09T20:23:34.301Z,96609.38
2023-01-09T20:26:01.581Z,96641.28
2023-01-09T20:28:28.396Z,96524.97
2023-01-09T20:30:54.978Z,96645.41
2023-01-09T20:33:21.708Z,96641.75
2023-01-09T20:35:48.259Z,96585.81
2023-01-09T20:38:14.897Z,96597.88
2023-01-09T20:40:44.439Z,96657.19
2023-01-09T20:43:12.438Z,96573.69
2023-01-09T20:45:39.778Z,96738.25
2023-01-09T20:48:06.720Z,96638.22
2023-01-09T20:50:33.394Z,96608.91
2023-01-09T20:52:59.894Z,96648.44
2023-01-09T20:55:26.448Z,96725.06
2023-01-09T20:57:53.072Z,96728.44
2023-01-09T21:00:20.628Z,96710.28
2023-01-09T21:02:47.225Z,96750.66
2023-01-09T21:05:13.835Z,96769.63
2023-01-09T21:07:40.387Z,96742.91
2023-01-09T21:10:07.281Z,96758.38
2023-01-09T21:12:37.572Z,96634.16
2023-01-09T21:15:06.327Z,96728.84
2023-01-09T21:17:37.580Z,96668.59
2023-01-09T21:20:05.373Z,96746.94
2023-01-09T21:22:33.588Z,96781.38
2023-01-09T21:25:00.259Z,96674.56
2023-01-09T21:27:30.889Z,96684.84
2023-01-09T21:29:57.575Z,96775.31
2023-01-09T21:32:24.117Z,96750.44
2023-01-09T21:34:50.769Z,96718.03
2023-01-09T21:37:17.359Z,96793.31
2023-01-09T21:39:44.757Z,96737.88
2023-01-09T21:42:30.145Z,96685.25
2023-01-09T21:45:15.302Z,96730.19
2023-01-09T21:47:41.965Z,96751.78
2023-01-09T21:50:08.976Z,96653.25
2023-01-09T21:52:36.111Z,96699.94
2023-01-09T21:55:02.592Z,96748.88
2023-01-09T21:57:29.143Z,96822.28
2023-01-09T21:59:55.696Z,96539.75
2023-01-09T22:02:22.251Z,96551.31
2023-01-09T22:04:49.136Z,96516.69
2023-01-09T22:07:16.300Z,96820.13
2023-01-09T22:09:44.517Z,96736.38
2023-01-09T22:12:11.757Z,96848.47
2023-01-09T22:14:39.611Z,96829.53
2023-01-09T22:17:06.257Z,96732.72
2023-01-09T22:19:32.826Z,96818.91
2023-01-09T22:21:59.963Z,96801.41
2023-01-09T22:24:26.575Z,96658.44
2023-01-09T22:26:55.790Z,96755.25
2023-01-09T22:29:22.447Z,96788.94
2023-01-09T22:31:48.971Z,96848.09
2023-01-09T22:34:16.377Z,96717.00
2023-01-09T22:36:43.119Z,96798.84
2023-01-09T22:39:14.180Z,96853.13
2023-01-09T22:41:40.813Z,96896.31
2023-01-09T22:44:07.423Z,96874.84
2023-01-09T22:46:34.246Z,96814.44
2023-01-09T22:49:02.040Z,96876.56
2023-01-09T22:51:28.695Z,96775.28
2023-01-09T22:53:55.236Z,96832.19
2023-01-09T22:56:22.206Z,96878.06
2023-01-09T22:58:52.819Z,96773.66
2023-01-09T23:01:19.787Z,96808.09
2023-01-09T23:03:46.427Z,96841.81
2023-01-09T23:06:14.679Z,96728.75
2023-01-09T23:08:41.337Z,96820.78
2023-01-09T23:11:09.742Z,96868.47
2023-01-09T23:13:36.396Z,96666.44
2023-01-09T23:16:03.004Z,96821.84
2023-01-09T23:18:29.513Z,96838.78
2023-01-09T23:20:57.590Z,96840.50
2023-01-09T23:23:25.009Z,96927.03
2023-01-09T23:25:52.697Z,96914.03
2023-01-09T23:28:19.387Z,96892.16
2023-01-09T23:30:46.128Z,96804.31
2023-01-09T23:33:12.748Z,96856.94
2023-01-09T23:35:39.384Z,96831.78
2023-01-09T23:38:06.090Z,96817.91
2023-01-09T23:40:32.614Z,96910.41
2023-01-09T23:43:11.513Z,96904.19
2023-01-09T23:45:44.972Z,96820.50
2023-01-09T23:48:13.097Z,96942.88
2023-01-09T23:50:42.394Z,96899.84
2023-01-09T23:53:09.048Z,96887.66
2023-01-09T23:55:35.695Z,96961.84
2023-01-09T23:58:02.204Z,96862.28
